Time;durP1;ratioP1;P1;durP2;ratioP2;P2;SDS_P1;SDS_P2;PMS_P1;PMS_P2;Temp;Humidity;BMP_temperature;BMP_pressure;BME280_temperature;BME280_humidity;BME280_pressure;Samples;Min_cycle;Max_cycle;Signal;HPM_P1;HPM_P2
2022/02/12 00:03:13;;;;;;;108.27;27.00;;;;;;;5.25;100.00;100731.47;30720915;28;20054;-74
2022/02/12 00:18:15;;;;;;;40.13;18.80;;;;;;;5.19;100.00;100738.34;30689735;28;20051;-74
2022/02/12 00:33:18;;;;;;;42.43;18.37;;;;;;;4.95;100.00;100732.28;30703888;28;20054;-73
2022/02/12 00:48:20;;;;;;;35.67;17.63;;;;;;;4.96;100.00;100746.50;30703123;28;20055;-74
2022/02/12 01:03:22;;;;;;;49.13;19.37;;;;;;;4.81;100.00;100750.91;30743489;28;20070;-73
2022/02/12 01:18:24;;;;;;;47.37;19.73;;;;;;;4.90;100.00;100748.75;30679955;28;20122;-72
2022/02/12 01:33:26;;;;;;;47.37;21.10;;;;;;;4.79;100.00;100753.19;30715611;28;20054;-74
2022/02/12 01:48:27;;;;;;;43.03;19.60;;;;;;;4.84;100.00;100758.25;30693132;28;20066;-73
2022/02/12 02:03:29;;;;;;;37.47;18.33;;;;;;;4.77;100.00;100763.53;30690620;28;20047;-73
2022/02/12 02:18:31;;;;;;;43.50;19.43;;;;;;;4.71;100.00;100752.31;30705949;28;20062;-74
2022/02/12 02:33:35;;;;;;;39.00;16.93;;;;;;;4.88;100.00;100753.69;30694693;28;20055;-72
2022/02/12 02:48:37;;;;;;;37.40;16.73;;;;;;;4.93;100.00;100748.00;30684861;28;20039;-73
2022/02/12 03:03:41;;;;;;;37.10;14.87;;;;;;;5.10;100.00;100742.09;30695025;28;20059;-74
2022/02/12 03:18:47;;;;;;;40.00;17.80;;;;;;;5.05;100.00;100745.09;30726313;28;20051;-73
2022/02/12 03:33:49;;;;;;;52.15;20.73;;;;;;;4.83;100.00;100743.25;30716954;28;20047;-73
2022/02/12 03:48:51;;;;;;;48.97;20.57;;;;;;;4.79;100.00;100753.19;30716074;28;20048;-75
2022/02/12 04:03:52;;;;;;;48.57;21.80;;;;;;;4.70;100.00;100744.63;30710362;28;20063;-73
2022/02/12 04:18:54;;;;;;;47.63;20.77;;;;;;;4.45;100.00;100739.66;30723012;28;20058;-72
2022/02/12 04:33:59;;;;;;;43.37;18.17;;;;;;;4.28;100.00;100739.34;30702999;28;20063;-72
2022/02/12 04:49:02;;;;;;;38.97;17.37;;;;;;;4.20;100.00;100726.94;30695991;28;20113;-73
2022/02/12 05:04:04;;;;;;;38.13;16.33;;;;;;;4.01;100.00;100735.84;30704053;28;20141;-73
2022/02/12 05:19:06;;;;;;;41.37;12.23;;;;;;;3.53;100.00;100732.69;30707131;28;20051;-73
2022/02/12 05:34:08;;;;;;;31.93;11.53;;;;;;;2.80;100.00;100722.78;30708372;28;20509;-74
2022/02/12 05:49:09;;;;;;;45.77;11.90;;;;;;;2.09;100.00;100721.16;30688633;28;20047;-74
2022/02/12 06:04:11;;;;;;;30.30;12.30;;;;;;;1.94;100.00;100732.63;30692367;28;20051;-73
2022/02/12 06:19:13;;;;;;;22.57;10.97;;;;;;;2.36;100.00;100719.50;30682956;28;20082;-74
2022/02/12 06:34:15;;;;;;;25.30;10.03;;;;;;;2.40;100.00;100704.25;30729106;28;20085;-74
2022/02/12 06:49:17;;;;;;;20.07;9.80;;;;;;;1.91;100.00;100722.59;30699021;28;20049;-73
2022/02/12 07:04:19;;;;;;;28.23;11.77;;;;;;;1.79;100.00;100722.69;30714413;28;20064;-75
2022/02/12 07:19:21;;;;;;;19.17;9.87;;;;;;;1.51;100.00;100707.44;30651453;28;1240588;-75
2022/02/12 07:34:24;;;;;;;18.00;7.57;;;;;;;1.76;100.00;100715.34;30712668;28;20063;-74
2022/02/12 07:49:26;;;;;;;25.87;10.70;;;;;;;1.96;100.00;100711.63;30681483;28;20489;-74
2022/02/12 08:04:28;;;;;;;23.80;9.40;;;;;;;2.11;100.00;100724.25;30731927;28;20493;-73
2022/02/12 08:19:32;;;;;;;19.80;8.83;;;;;;;2.34;100.00;100716.38;30728619;28;20055;-75
2022/02/12 08:34:42;;;;;;;18.10;7.90;;;;;;;2.75;100.00;100736.47;30730841;28;20485;-74
2022/02/12 08:49:46;;;;;;;10.77;5.63;;;;;;;2.84;100.00;100750.44;30727212;28;20537;-74
2022/02/12 09:04:48;;;;;;;26.37;11.07;;;;;;;2.99;100.00;100757.69;30712881;28;20469;-75
2022/02/12 09:19:50;;;;;;;26.17;11.07;;;;;;;3.19;100.00;100744.28;30706465;28;20502;-74
2022/02/12 09:34:53;;;;;;;29.00;12.07;;;;;;;3.33;100.00;100713.13;30706539;28;20055;-74
2022/02/12 09:49:57;;;;;;;29.67;14.90;;;;;;;3.46;100.00;100737.94;30702093;28;20051;-74
2022/02/12 10:05:19;;;;;;;36.57;15.57;;;;;;;3.66;100.00;100726.03;30686739;28;20146;-74
2022/02/12 10:20:24;;;;;;;34.87;15.53;;;;;;;3.89;100.00;100730.66;30711951;28;20047;-72
2022/02/12 10:35:27;;;;;;;31.80;15.67;;;;;;;4.08;100.00;100733.28;30681445;28;20054;-73
2022/02/12 10:50:31;;;;;;;35.00;16.57;;;;;;;4.44;100.00;100735.41;30704606;28;20056;-74
2022/02/12 11:05:35;;;;;;;28.50;13.73;;;;;;;4.57;100.00;100748.63;30702514;28;20461;-73
2022/02/12 11:20:43;;;;;;;29.27;12.87;;;;;;;4.51;100.00;100758.13;30707786;28;20441;-75
2022/02/12 11:36:10;;;;;;;27.67;13.80;;;;;;;5.20;100.00;100766.81;30736990;28;20086;-74
2022/02/12 11:51:12;;;;;;;17.03;10.00;;;;;;;5.23;100.00;100788.38;30715590;28;20047;-74
2022/02/12 12:06:21;;;;;;;12.97;7.50;;;;;;;4.80;100.00;100821.97;30730841;28;20546;-73
2022/02/12 12:21:23;;;;;;;16.30;9.00;;;;;;;4.74;100.00;100845.72;30728614;28;20090;-74
2022/02/12 12:36:25;;;;;;;15.10;8.13;;;;;;;4.51;100.00;100857.63;30714657;28;20065;-76
2022/02/12 12:51:27;;;;;;;13.33;7.70;;;;;;;4.35;100.00;100901.53;30704074;28;20044;-75
2022/02/12 13:06:30;;;;;;;15.70;7.60;;;;;;;3.53;100.00;100952.84;30718372;28;20063;-76
2022/02/12 13:21:32;;;;;;;21.73;9.13;;;;;;;3.27;100.00;100999.00;30692909;28;20409;-74
2022/02/12 13:36:42;;;;;;;11.03;7.30;;;;;;;3.22;99.78;101038.72;30681798;28;20486;-75
2022/02/12 13:51:56;;;;;;;9.00;5.20;;;;;;;3.19;99.85;101109.19;30706034;28;20061;-76
2022/02/12 14:06:57;;;;;;;3.30;2.63;;;;;;;2.85;97.67;101159.59;30687817;28;20055;-76
2022/02/12 14:21:59;;;;;;;2.97;2.17;;;;;;;2.68;95.52;101181.34;30684326;28;20051;-75
2022/02/12 14:37:02;;;;;;;6.33;2.27;;;;;;;2.64;98.44;101217.97;30679399;28;20057;-76
2022/02/12 14:52:08;;;;;;;5.37;2.70;;;;;;;2.53;97.13;101265.91;30734355;28;20057;-74
2022/02/12 15:07:09;;;;;;;3.43;2.70;;;;;;;2.50;98.42;101287.25;30688714;28;20051;-74
2022/02/12 15:22:12;;;;;;;4.27;2.73;;;;;;;2.48;96.47;101308.25;30718259;28;20055;-79
2022/02/12 15:37:14;;;;;;;6.10;3.57;;;;;;;2.42;97.32;101360.50;30763857;28;20063;-80
2022/02/12 15:52:17;;;;;;;9.23;4.10;;;;;;;2.43;96.01;101400.38;30713636;28;20051;-78
2022/02/12 16:07:19;;;;;;;6.67;3.43;;;;;;;2.43;96.94;101450.50;30698790;28;20083;-79
2022/02/12 16:22:34;;;;;;;9.60;4.30;;;;;;;2.31;97.39;101489.56;30707563;28;20059;-79
2022/02/12 16:37:39;;;;;;;11.17;5.07;;;;;;;2.35;100.00;101528.00;30701840;28;20070;-79
2022/02/12 16:52:41;;;;;;;7.73;3.57;;;;;;;2.25;90.88;101549.81;30728806;28;20527;-80
2022/02/12 17:07:43;;;;;;;7.90;3.67;;;;;;;2.31;91.85;101591.38;30671888;28;20509;-79
2022/02/12 17:22:45;;;;;;;9.83;4.33;;;;;;;2.31;93.47;101609.38;30660783;28;20089;-79
2022/02/12 17:37:47;;;;;;;12.30;6.37;;;;;;;2.23;96.37;101632.41;30694524;28;20597;-78
2022/02/12 17:52:48;;;;;;;15.53;7.40;;;;;;;2.15;98.80;101668.06;30702128;28;20044;-78
2022/02/12 18:07:50;;;;;;;14.17;6.63;;;;;;;2.08;98.34;101689.25;30696963;28;20056;-80
2022/02/12 18:22:52;;;;;;;11.53;5.50;;;;;;;2.13;97.46;101718.50;30724788;28;20058;-80
2022/02/12 18:37:56;;;;;;;7.27;3.83;;;;;;;2.11;95.15;101742.19;30679542;28;20055;-81
2022/02/12 18:52:58;;;;;;;6.33;3.63;;;;;;;1.99;95.50;101774.19;30687530;28;20138;-80
2022/02/12 19:08:00;;;;;;;8.47;3.90;;;;;;;1.90;95.90;101794.84;30684960;28;20062;-82
2022/02/12 19:23:06;;;;;;;7.03;3.43;;;;;;;1.85;96.05;101811.09;30697607;28;20502;-80
2022/02/12 19:38:09;;;;;;;9.57;3.27;;;;;;;1.70;92.39;101839.91;30696984;28;20062;-80
2022/02/12 19:53:12;;;;;;;11.47;4.77;;;;;;;1.68;92.86;101863.53;30688265;28;20046;-80
2022/02/12 20:08:14;;;;;;;8.93;4.43;;;;;;;1.61;92.06;101873.94;30721512;28;20051;-80
2022/02/12 20:23:16;;;;;;;10.97;5.30;;;;;;;1.76;94.60;101904.03;30713252;28;20056;-78
2022/02/12 20:38:19;;;;;;;10.37;5.43;;;;;;;1.76;94.13;101904.03;30734033;28;20049;-79
2022/02/12 20:53:21;;;;;;;17.80;5.67;;;;;;;1.71;94.76;101934.41;30708980;28;20054;-79
2022/02/12 21:08:27;;;;;;;16.03;6.30;;;;;;;1.43;96.12;101957.19;30713224;28;20051;-78
2022/02/12 21:23:33;;;;;;;14.20;6.20;;;;;;;1.12;95.31;101973.31;30725161;28;20055;-77
2022/02/12 21:38:35;;;;;;;15.68;4.57;;;;;;;0.98;97.75;101992.91;30696664;28;20406;-77
2022/02/12 21:53:37;;;;;;;17.53;4.60;;;;;;;0.78;97.88;102033.53;30689699;28;20060;-78
2022/02/12 22:08:39;;;;;;;9.57;5.17;;;;;;;0.59;98.96;102044.41;30724499;28;20073;-78
2022/02/12 22:23:46;;;;;;;9.20;5.10;;;;;;;0.43;100.00;102063.78;30714919;28;20059;-78
2022/02/12 22:38:49;;;;;;;8.30;4.90;;;;;;;0.34;100.00;102077.84;30686147;28;20106;-78
2022/02/12 22:53:51;;;;;;;10.70;4.87;;;;;;;0.27;100.00;102109.53;30702957;28;20052;-77
2022/02/12 23:08:52;;;;;;;8.77;4.57;;;;;;;0.30;100.00;102118.81;30710853;28;20058;-77
2022/02/12 23:23:56;;;;;;;8.50;5.33;;;;;;;0.25;100.00;102137.63;30687062;28;20071;-78
2022/02/12 23:38:58;;;;;;;12.80;4.87;;;;;;;0.15;100.00;102161.88;30757768;28;20061;-77
2022/02/12 23:53:59;;;;;;;11.00;4.70;;;;;;;0.13;100.00;102167.53;30709892;28;20143;-77
